Nrc Quest — WDF7619 — position and weather

sailwx.info

Track history (hours):
 
Tides and Currents Weather Stations Pressure Air Temp Water Temp Dewpoint Dewpoint Depression Visibility Wind Speed Wind Dir Waves Ship Positions

Nrc Quest

Owner: National Response Corporation, The Woodlands, TX. More information available from US FCC via Universal Licensing System and Coast Guard Vessel Documentation Center.

Last reported at 2017-Sep-19 06:31 UTC. Time now 2017-Sep-19 16:59 UTC.
Position N 33°43' W 118°16'.

Length 46 m; draft 3.5 m.

Type: Ship. MMSI: 367486370.

Date/timePositionNaut miles runAvg speedWind from/ knotsBaromVisibWave heightAir tempDewpointWater temp
2017-Sep-19 06:31N 33°43' W 118°16'0 0.0
2017-Sep-19 06:28N 33°43' W 118°16'0 0.0
2017-Sep-19 05:58N 33°43' W 118°16'0 0.0
2017-Sep-19 05:04N 33°43' W 118°16'0 0.0
2017-Sep-19 03:34N 33°43' W 118°16'0 0.0
2017-Sep-19 02:01N 33°43' W 118°16'0 0.0
2017-Sep-19 00:40N 33°43' W 118°16'0 0.0
2017-Sep-19 00:19N 33°43' W 118°16'0 0.0
2017-Sep-18 23:58N 33°43' W 118°16'0 0.0
2017-Sep-18 23:16N 33°43' W 118°16'0 0.0
2017-Sep-18 22:55N 33°43' W 118°16'0 0.0
2017-Sep-18 22:28N 33°43' W 118°16'0 0.0
2017-Sep-18 21:49N 33°43' W 118°16'0 0.0
2017-Sep-18 21:16N 33°43' W 118°16'0 0.0
2017-Sep-18 20:43N 33°43' W 118°16'0 0.0
2017-Sep-18 19:52N 33°43' W 118°16'0 0.0
2017-Sep-18 19:25N 33°43' W 118°16'0 0.0
2017-Sep-18 18:58N 33°43' W 118°16'0 0.0
2017-Sep-18 18:28N 33°43' W 118°16'0 0.0
2017-Sep-18 17:58N 33°43' W 118°16'0 0.1
2017-Sep-18 16:58N 33°43' W 118°17'0 0.0
2017-Sep-18 16:19N 33°43' W 118°17'0 0.0
2017-Sep-18 15:34N 33°43' W 118°17'0 0.0
2017-Sep-18 15:16N 33°43' W 118°17'0 0.0
2017-Sep-18 14:58N 33°43' W 118°17'0 0.2
2017-Sep-18 14:30N 33°43' W 118°16'3 5.2
2017-Sep-18 13:55N 33°41' W 118°14'410.2
2017-Sep-18 13:31N 33°37' W 118°15'510.4
2017-Sep-18 13:00N 33°31' W 118°16'510.2
2017-Sep-18 12:30N 33°26' W 118°16'5 9.3
2017-Sep-18 12:01N 33°22' W 118°16'4 7.9
2017-Sep-18 11:29N 33°18' W 118°17'3 6.7
2017-Sep-18 11:00N 33°15' W 118°18'2 4.3
2017-Sep-18 10:30N 33°12' W 118°18'2 4.3
2017-Sep-18 10:00N 33°10' W 118°18'2 4.3
2017-Sep-18 09:28N 33°08' W 118°19'2 4.3
2017-Sep-18 09:01N 33°06' W 118°19'2 4.4
2017-Sep-18 08:30N 33°04' W 118°19'2 4.4
2017-Sep-18 07:59N 33°02' W 118°19'2 4.4
2017-Sep-18 07:28N 32°59' W 118°20'2 4.4
2017-Sep-18 07:00N 32°57' W 118°20'2 4.4
2017-Sep-18 06:30N 32°55' W 118°20'2 4.4
2017-Sep-18 06:00N 32°53' W 118°20'3 5.1
2017-Sep-18 05:31N 32°50' W 118°20'5 9.4
2017-Sep-18 04:57N 32°47' W 118°25'610.2
2017-Sep-18 04:19N 32°47' W 118°33'710.1
2017-Sep-18 03:40N 32°44' W 118°40'210.3
2017-Sep-18 03:30N 32°43' W 118°42'510.3
2017-Sep-18 03:01N 32°42' W 118°48'910.2
2017-Sep-18 02:08N 32°40' W 118°58'310.2
2017-Sep-18 01:50N 32°39' W 119°01'410.1
2017-Sep-18 01:27N 32°37' W 119°06'2810.2
2017-Sep-17 22:40N 32°30' W 119°38'3910.5
2017-Sep-17 18:56N 32°21' W 120°23'19 1.1
2017-Sep-17 01:51N 32°20' W 120°46'3 0.6
2017-Sep-16 20:48N 32°19' W 120°43'2 5.3
2017-Sep-16 20:30N 32°18' W 120°41'56 7.6
2017-Sep-16 13:08N 32°29' W 119°36'4 9.0
2017-Sep-16 12:41N 32°30' W 119°31'8 9.0
2017-Sep-16 11:49N 32°32' W 119°22'3 9.2
2017-Sep-16 11:30N 32°33' W 119°19'4 9.1
2017-Sep-16 11:00N 32°34' W 119°14'5 8.9
2017-Sep-16 10:26N 32°36' W 119°08'6 9.0
2017-Sep-16 09:45N 32°37' W 119°01'2 8.8
2017-Sep-16 09:30N 32°38' W 118°59'9 9.0
2017-Sep-16 08:29N 32°40' W 118°48'26 9.3
2017-Sep-16 05:40N 32°50' W 118°20'510.0
2017-Sep-16 05:10N 32°55' W 118°19'210.1
2017-Sep-16 04:59N 32°57' W 118°18'610.3
2017-Sep-16 04:27N 33°02' W 118°17'1010.3
2017-Sep-16 03:26N 33°13' W 118°17'410.1
2017-Sep-16 03:00N 33°17' W 118°17'1910.1
2017-Sep-16 01:07N 33°36' W 118°15'110.2
2017-Sep-16 01:00N 33°37' W 118°15'510.1
2017-Sep-16 00:30N 33°42' W 118°15'2 2.8
2017-Sep-15 23:57N 33°43' W 118°16'0 0.0
2017-Sep-15 23:30N 33°43' W 118°16'0 0.0
2017-Sep-15 22:57N 33°43' W 118°16'0 0.0
2017-Sep-15 22:30N 33°43' W 118°16'0 0.0
2017-Sep-15 21:58N 33°43' W 118°16'0 0.0
2017-Sep-15 21:30N 33°43' W 118°16'0 0.0
2017-Sep-15 21:00N 33°43' W 118°16'0 0.0
2017-Sep-15 20:30N 33°43' W 118°16'0 0.0
2017-Sep-15 19:58N 33°43' W 118°16'0 0.0
2017-Sep-15 19:30N 33°43' W 118°16'0 0.0
2017-Sep-15 19:00N 33°43' W 118°16'0 0.0
2017-Sep-15 17:57N 33°43' W 118°16'0 0.0
2017-Sep-15 14:00N 33°43' W 118°16'0 0.0
2017-Sep-15 11:42N 33°43' W 118°16'0 0.0
2017-Sep-15 11:30N 33°43' W 118°16'0 0.0
2017-Sep-15 10:54N 33°43' W 118°16'0 0.0
2017-Sep-15 10:30N 33°43' W 118°16'0 0.0
2017-Sep-15 09:48N 33°43' W 118°16'0 0.0
2017-Sep-15 09:18N 33°43' W 118°16'0 0.0
2017-Sep-15 08:42N 33°43' W 118°16'0 0.0
2017-Sep-15 08:30N 33°43' W 118°16'0 0.0
2017-Sep-15 07:57N 33°43' W 118°16'0 0.0
2017-Sep-15 07:30N 33°43' W 118°16'0 0.0
2017-Sep-15 06:21N 33°43' W 118°16'0 0.0
2017-Sep-15 05:54N 33°43' W 118°16'0 0.0
2017-Sep-15 05:30N 33°43' W 118°16'0 0.0
2017-Sep-15 04:21N 33°43' W 118°16'0 0.0
2017-Sep-15 04:00N 33°43' W 118°16'0 0.0
2017-Sep-14 23:45N 33°43' W 118°16'0 0.0
2017-Sep-14 23:21N 33°43' W 118°16'0 0.0
2017-Sep-14 22:54N 33°43' W 118°16'0 0.0
2017-Sep-14 22:27N 33°43' W 118°16'0 0.0
2017-Sep-14 20:27N 33°43' W 118°16'0 0.0
2017-Sep-14 19:39N 33°43' W 118°16'0 0.0
2017-Sep-14 19:21N 33°43' W 118°16'0 0.0
2017-Sep-14 18:45N 33°43' W 118°16'0 0.0
2017-Sep-14 18:27N 33°43' W 118°16'0 0.0
2017-Sep-14 17:57N 33°43' W 118°16'0 0.0
2017-Sep-14 17:15N 33°43' W 118°16'0 0.0
2017-Sep-14 16:51N 33°43' W 118°16'0 0.0
2017-Sep-14 16:21N 33°43' W 118°16'0 0.0
2017-Sep-14 13:39N 33°43' W 118°16'0 0.0
2017-Sep-14 13:24N 33°43' W 118°16'0 0.0
2017-Sep-14 13:00N 33°43' W 118°16'0 0.0
2017-Sep-14 12:12N 33°43' W 118°16'0 0.0
2017-Sep-14 11:48N 33°43' W 118°16'0 0.0
2017-Sep-14 06:21N 33°43' W 118°16'0 0.0
2017-Sep-14 06:00N 33°43' W 118°16'0 0.0
2017-Sep-14 05:21N 33°43' W 118°16'0 0.0
2017-Sep-14 03:24N 33°43' W 118°16'0 0.0
2017-Sep-14 02:27N 33°43' W 118°16'0 0.0
2017-Sep-14 01:24N 33°43' W 118°16'0 0.0
2017-Sep-14 00:54N 33°43' W 118°16'0 0.0
2017-Sep-14 00:30N 33°43' W 118°16'0 0.0
2017-Sep-14 00:00N 33°43' W 118°16'0 0.0
2017-Sep-13 23:27N 33°43' W 118°16'0 0.0
2017-Sep-13 23:00N 33°43' W 118°16'0 0.0
2017-Sep-13 22:27N 33°43' W 118°16'0 0.0
2017-Sep-13 22:00N 33°43' W 118°16'0 0.0
2017-Sep-13 21:30N 33°43' W 118°16'0 0.0
2017-Sep-13 20:57N 33°43' W 118°16'0 0.0
2017-Sep-13 20:27N 33°43' W 118°16'0 0.0
2017-Sep-13 19:57N 33°43' W 118°16'0 0.0
2017-Sep-13 18:48N 33°43' W 118°16'0 0.0
2017-Sep-13 18:30N 33°43' W 118°16'0 0.0
2017-Sep-13 17:57N 33°43' W 118°16'0 0.0
2017-Sep-13 17:30N 33°43' W 118°16'0 0.0
2017-Sep-13 16:57N 33°43' W 118°16'0 0.0
2017-Sep-13 15:42N 33°43' W 118°16'0 0.0
2017-Sep-13 15:30N 33°43' W 118°16'0 0.0
2017-Sep-13 14:57N 33°43' W 118°16'0 0.0
2017-Sep-13 14:30N 33°43' W 118°16'0 0.0
2017-Sep-13 14:00N 33°43' W 118°16'0 0.0
2017-Sep-13 13:00N 33°43' W 118°16'0 0.0
2017-Sep-13 12:03N 33°43' W 118°16'0 0.0
2017-Sep-13 11:51N 33°43' W 118°16'0 0.0
2017-Sep-13 11:30N 33°43' W 118°16'0 0.0
2017-Sep-13 10:54N 33°43' W 118°16'0 0.0
2017-Sep-13 10:30N 33°43' W 118°16'0 0.0
2017-Sep-13 10:00N 33°43' W 118°16'0 0.0
2017-Sep-13 09:18N 33°43' W 118°16'0 0.0
2017-Sep-13 09:00N 33°43' W 118°16'0 0.0
2017-Sep-13 08:18N 33°43' W 118°16'0 0.0
2017-Sep-13 07:57N 33°43' W 118°16'0 0.0
2017-Sep-13 07:30N 33°43' W 118°16'0 0.0
2017-Sep-13 06:51N 33°43' W 118°16'0 0.0
2017-Sep-13 06:30N 33°43' W 118°16'0 0.0
2017-Sep-13 05:54N 33°43' W 118°16'0 0.0
2017-Sep-13 05:30N 33°43' W 118°16'0 0.0
2017-Sep-13 04:57N 33°43' W 118°16'0 0.0
2017-Sep-13 04:27N 33°43' W 118°16'0 0.0
2017-Sep-13 03:57N 33°43' W 118°16'0 0.0
2017-Sep-13 03:30N 33°43' W 118°16'0 0.0
2017-Sep-13 02:57N 33°43' W 118°16'0 0.0
2017-Sep-13 02:27N 33°43' W 118°16'0 0.0
2017-Sep-13 02:00N 33°43' W 118°16'0 0.0
2017-Sep-13 01:30N 33°43' W 118°16'0 0.0
2017-Sep-13 01:00N 33°43' W 118°16'0 0.0
2017-Sep-13 00:30N 33°43' W 118°16'0 0.0
2017-Sep-13 00:00N 33°43' W 118°16'0 0.0
2017-Sep-12 23:30N 33°43' W 118°16'0 0.0
2017-Sep-12 23:00N 33°43' W 118°16'0 0.0
2017-Sep-12 22:30N 33°43' W 118°16'0 0.0
2017-Sep-12 21:57N 33°43' W 118°16'0 0.0
2017-Sep-12 21:30N 33°43' W 118°16'0 0.0
2017-Sep-12 21:00N 33°43' W 118°16'0 0.0
2017-Sep-12 20:18N 33°43' W 118°16'0 0.0
2017-Sep-12 19:54N 33°43' W 118°16'0 0.0
2017-Sep-12 19:30N 33°43' W 118°16'0 0.0
2017-Sep-12 18:57N 33°43' W 118°16'0 0.0
2017-Sep-12 18:27N 33°43' W 118°16'0 0.0
2017-Sep-12 17:57N 33°43' W 118°16'0 0.0
2017-Sep-12 17:30N 33°43' W 118°16'0 0.0
2017-Sep-12 17:00N 33°43' W 118°16'0 0.0
2017-Sep-12 16:30N 33°43' W 118°16'0 0.0
2017-Sep-12 16:00N 33°43' W 118°16'0 0.0
2017-Sep-12 15:27N 33°43' W 118°16'0 0.0
2017-Sep-12 15:00N 33°43' W 118°16'0 0.0
2017-Sep-12 14:30N 33°43' W 118°16'0 0.0
2017-Sep-12 14:00N 33°43' W 118°16'0 0.0
2017-Sep-12 13:30N 33°43' W 118°16'0 0.0
2017-Sep-12 13:00N 33°43' W 118°16'0 0.0
2017-Sep-12 12:30N 33°43' W 118°16'0 0.0
2017-Sep-12 12:00N 33°43' W 118°16'0 0.0
2017-Sep-12 11:30N 33°43' W 118°16'0 0.0
2017-Sep-12 11:00N 33°43' W 118°16'0 0.0
2017-Sep-12 10:30N 33°43' W 118°16'0 0.0
2017-Sep-12 10:00N 33°43' W 118°16'0 0.0
2017-Sep-12 09:30N 33°43' W 118°16'0 0.0
2017-Sep-12 09:00N 33°43' W 118°16'0 0.0
2017-Sep-12 08:30N 33°43' W 118°16'0 0.0
2017-Sep-12 08:00N 33°43' W 118°16'0 0.0
2017-Sep-12 07:30N 33°43' W 118°16'0 0.0
2017-Sep-12 06:57N 33°43' W 118°16'0 0.0
2017-Sep-12 06:27N 33°43' W 118°16'0 0.0
2017-Sep-12 06:00N 33°43' W 118°16'0 0.0
2017-Sep-12 05:30N 33°43' W 118°16'0 0.0
2017-Sep-12 05:00N 33°43' W 118°16'0 0.0
2017-Sep-12 04:30N 33°43' W 118°16'0 0.0
2017-Sep-12 04:00N 33°43' W 118°16'0 0.0
2017-Sep-12 03:30N 33°43' W 118°16'0 0.0
2017-Sep-12 03:00N 33°43' W 118°16'0 0.0
2017-Sep-12 02:30N 33°43' W 118°16'0 0.0
2017-Sep-12 02:00N 33°43' W 118°16'0 0.0
2017-Sep-12 01:30N 33°43' W 118°16'0 0.0
2017-Sep-12 00:57N 33°43' W 118°16'0 0.0
2017-Sep-12 00:30N 33°43' W 118°16'0 0.0
2017-Sep-12 00:00N 33°43' W 118°16'0 0.0
2017-Sep-11 23:30N 33°43' W 118°16'0 0.0
2017-Sep-11 23:00N 33°43' W 118°16'0 0.0
2017-Sep-11 22:30N 33°43' W 118°16'0 0.0
2017-Sep-11 22:00N 33°43' W 118°16'0 0.0
2017-Sep-11 21:30N 33°43' W 118°16'0 0.0
2017-Sep-11 21:00N 33°43' W 118°16'0 0.0
2017-Sep-11 20:30N 33°43' W 118°16'0 0.0
2017-Sep-11 20:00N 33°43' W 118°16'0 0.0
2017-Sep-11 19:30N 33°43' W 118°16'0 0.0
2017-Sep-11 18:57N 33°43' W 118°16'0 0.0
2017-Sep-11 18:30N 33°43' W 118°16'0 0.0
2017-Sep-11 18:00N 33°43' W 118°16'0 0.0
2017-Sep-11 17:30N 33°43' W 118°16'0 0.0
2017-Sep-11 17:00N 33°43' W 118°16'0 0.0
2017-Sep-11 16:24N 33°43' W 118°16'0 0.0
2017-Sep-11 16:00N 33°43' W 118°16'0 0.0
2017-Sep-11 15:30N 33°43' W 118°16'0 0.0
2017-Sep-11 15:00N 33°43' W 118°16'0 0.0
2017-Sep-11 14:27N 33°43' W 118°16'0 0.0
2017-Sep-11 13:57N 33°43' W 118°16'0 0.0
2017-Sep-11 13:24N 33°43' W 118°16'0 0.0
2017-Sep-11 12:57N 33°43' W 118°16'0 0.0
2017-Sep-11 12:27N 33°43' W 118°16'0 0.0
2017-Sep-11 12:00N 33°43' W 118°16'0 0.0
2017-Sep-11 11:30N 33°43' W 118°16'0 0.0
2017-Sep-11 11:00N 33°43' W 118°16'0 0.0
2017-Sep-11 10:30N 33°43' W 118°16'0 0.0
2017-Sep-11 10:00N 33°43' W 118°16'0 0.0
2017-Sep-11 09:30N 33°43' W 118°16'0 0.0
2017-Sep-11 09:00N 33°43' W 118°16'0 0.0
2017-Sep-11 08:30N 33°43' W 118°16'0 0.0
2017-Sep-11 08:00N 33°43' W 118°16'0 0.0
2017-Sep-11 07:30N 33°43' W 118°16'0 0.0
2017-Sep-11 07:00N 33°43' W 118°16'0 0.0
2017-Sep-11 06:30N 33°43' W 118°16'0 0.0
2017-Sep-11 06:00N 33°43' W 118°16'0 0.0
2017-Sep-11 05:30N 33°43' W 118°16'0 0.0
2017-Sep-11 05:00N 33°43' W 118°16'0 0.0
2017-Sep-11 04:30N 33°43' W 118°16'0 0.0
2017-Sep-11 04:00N 33°43' W 118°16'0 0.0
2017-Sep-11 03:30N 33°43' W 118°16'0 0.0
2017-Sep-11 03:00N 33°43' W 118°16'0 0.0
2017-Sep-11 02:30N 33°43' W 118°16'0 0.0
2017-Sep-11 02:00N 33°43' W 118°16'0 0.0
2017-Sep-11 01:27N 33°43' W 118°16'0 0.0
2017-Sep-11 01:00N 33°43' W 118°16'0 0.0
2017-Sep-11 00:30N 33°43' W 118°16'0 0.0
2017-Sep-11 00:00N 33°43' W 118°16'0 0.0
2017-Sep-10 23:30N 33°43' W 118°16'0 0.0
2017-Sep-10 23:00N 33°43' W 118°16'0 0.0
2017-Sep-10 22:30N 33°43' W 118°16'0 0.0
2017-Sep-10 22:00N 33°43' W 118°16'0 0.0
2017-Sep-10 21:30N 33°43' W 118°16'0 0.0
2017-Sep-10 21:00N 33°43' W 118°16'0 0.0
2017-Sep-10 20:30N 33°43' W 118°16'0 0.0
2017-Sep-10 20:00N 33°43' W 118°16'0 0.0
2017-Sep-10 19:30N 33°43' W 118°16'0 0.0
2017-Sep-10 19:00N 33°43' W 118°16'0 0.0
2017-Sep-10 18:30N 33°43' W 118°16'0 0.0
2017-Sep-10 18:00N 33°43' W 118°16'0 0.0
2017-Sep-10 17:30N 33°43' W 118°16'0 0.0
2017-Sep-10 17:00N 33°43' W 118°16'0 0.0
2017-Sep-10 16:30N 33°43' W 118°16'0 0.0
2017-Sep-10 16:00N 33°43' W 118°16'0 0.0
2017-Sep-10 15:30N 33°43' W 118°16'0 0.0
2017-Sep-10 15:00N 33°43' W 118°16'0 0.0
2017-Sep-10 14:00N 33°43' W 118°16'0 0.0
2017-Sep-10 13:30N 33°43' W 118°16'0 0.0
2017-Sep-10 13:00N 33°43' W 118°16'0 0.0
2017-Sep-10 12:30N 33°43' W 118°16'0 0.0
2017-Sep-10 12:00N 33°43' W 118°16'0 0.0
2017-Sep-10 11:30N 33°43' W 118°16'0 0.0
2017-Sep-10 10:57N 33°43' W 118°16'0 0.0
2017-Sep-10 10:30N 33°43' W 118°16'0 0.0
2017-Sep-10 10:00N 33°43' W 118°16'0 0.0
2017-Sep-10 09:30N 33°43' W 118°16'0 0.0
2017-Sep-10 09:00N 33°43' W 118°16'0 0.0
2017-Sep-10 08:30N 33°43' W 118°16'0 0.0
2017-Sep-10 08:00N 33°43' W 118°16'0 0.0
2017-Sep-10 07:30N 33°43' W 118°16'0 0.0
2017-Sep-10 06:54N 33°43' W 118°16'0 0.0
2017-Sep-10 06:27N 33°43' W 118°16'0 0.0
2017-Sep-10 06:00N 33°43' W 118°16'0 0.0
2017-Sep-10 05:30N 33°43' W 118°16'0 0.0
2017-Sep-10 05:00N 33°43' W 118°16'0 0.0
2017-Sep-10 04:24N 33°43' W 118°16'0 0.0
2017-Sep-10 04:00N 33°43' W 118°16'0 0.0
2017-Sep-10 03:30N 33°43' W 118°16'0 0.0
2017-Sep-10 03:00N 33°43' W 118°16'0 0.0
2017-Sep-10 02:30N 33°43' W 118°16'0 0.0
2017-Sep-10 02:00N 33°43' W 118°16'0 0.0
2017-Sep-10 01:30N 33°43' W 118°16'0 0.0
2017-Sep-10 01:00N 33°43' W 118°16'0 0.0
2017-Sep-10 00:30N 33°43' W 118°16'0 0.0
2017-Sep-10 00:00N 33°43' W 118°16'0 0.0
2017-Sep-09 23:30N 33°43' W 118°16'0 0.0
2017-Sep-09 23:00N 33°43' W 118°16'0 0.0
2017-Sep-09 22:30N 33°43' W 118°16'0 0.0
2017-Sep-09 22:00N 33°43' W 118°16'0 0.0
2017-Sep-09 21:30N 33°43' W 118°16'0 0.0
2017-Sep-09 21:00N 33°43' W 118°16'0 0.0
2017-Sep-09 20:30N 33°43' W 118°16'0 0.0
2017-Sep-09 20:00N 33°43' W 118°16'0 0.0
2017-Sep-09 19:24N 33°43' W 118°16'0 0.0
2017-Sep-09 19:00N 33°43' W 118°16'0 0.0
2017-Sep-09 18:30N 33°43' W 118°16'0 0.0
2017-Sep-09 17:57N 33°43' W 118°16'0 0.0
2017-Sep-09 17:30N 33°43' W 118°16'0 0.0
2017-Sep-09 16:57N 33°43' W 118°16'0 0.0
2017-Sep-09 16:30N 33°43' W 118°16'0 0.0
2017-Sep-09 16:00N 33°43' W 118°16'0 0.0
2017-Sep-09 15:30N 33°43' W 118°16'0 0.0
2017-Sep-09 14:57N 33°43' W 118°16'0 0.0
2017-Sep-09 14:30N 33°43' W 118°16'0 0.0
2017-Sep-09 14:00N 33°43' W 118°16'0 0.0
2017-Sep-09 13:30N 33°43' W 118°16'0 0.0
2017-Sep-09 12:54N 33°43' W 118°16'0 0.0
2017-Sep-09 12:30N 33°43' W 118°16'0 0.0
2017-Sep-09 12:00N 33°43' W 118°16'0 0.0
2017-Sep-09 11:30N 33°43' W 118°16'0 0.0
2017-Sep-09 11:00N 33°43' W 118°16'0 0.0
2017-Sep-09 10:18N 33°43' W 118°16'0 0.0
2017-Sep-09 10:00N 33°43' W 118°16'0 0.0
2017-Sep-09 09:30N 33°43' W 118°16'0 0.0
2017-Sep-09 09:00N 33°43' W 118°16'0 0.0
2017-Sep-09 08:30N 33°43' W 118°16'0 0.0
2017-Sep-09 07:54N 33°43' W 118°16'0 0.0
2017-Sep-09 07:30N 33°43' W 118°16'0 0.0
2017-Sep-09 06:57N 33°43' W 118°16'  
Track history (hours):
 
Tides and Currents Weather Stations Pressure Air Temp Water Temp Dewpoint Dewpoint Depression Visibility Wind Speed Wind Dir Waves Ship Positions

Nrc Quest

Owner: National Response Corporation, The Woodlands, TX. More information available from US FCC via Universal Licensing System and Coast Guard Vessel Documentation Center.

Last reported at 2017-Sep-19 06:31 UTC. Time now 2017-Sep-19 16:59 UTC.
Position N 33°43' W 118°16'.

Length 46 m; draft 3.5 m.

Type: Ship. MMSI: 367486370.

Date/timePositionNaut miles runAvg speedWind from/ knotsBaromVisibWave heightAir tempDewpointWater temp
2017-Sep-19 06:31N 33°43' W 118°16'0 0.0
2017-Sep-19 06:28N 33°43' W 118°16'0 0.0
2017-Sep-19 05:58N 33°43' W 118°16'0 0.0
2017-Sep-19 05:04N 33°43' W 118°16'0 0.0
2017-Sep-19 03:34N 33°43' W 118°16'0 0.0
2017-Sep-19 02:01N 33°43' W 118°16'0 0.0
2017-Sep-19 00:40N 33°43' W 118°16'0 0.0
2017-Sep-19 00:19N 33°43' W 118°16'0 0.0
2017-Sep-18 23:58N 33°43' W 118°16'0 0.0
2017-Sep-18 23:16N 33°43' W 118°16'0 0.0
2017-Sep-18 22:55N 33°43' W 118°16'0 0.0
2017-Sep-18 22:28N 33°43' W 118°16'0 0.0
2017-Sep-18 21:49N 33°43' W 118°16'0 0.0
2017-Sep-18 21:16N 33°43' W 118°16'0 0.0
2017-Sep-18 20:43N 33°43' W 118°16'0 0.0
2017-Sep-18 19:52N 33°43' W 118°16'0 0.0
2017-Sep-18 19:25N 33°43' W 118°16'0 0.0
2017-Sep-18 18:58N 33°43' W 118°16'0 0.0
2017-Sep-18 18:28N 33°43' W 118°16'0 0.0
2017-Sep-18 17:58N 33°43' W 118°16'0 0.1
2017-Sep-18 16:58N 33°43' W 118°17'0 0.0
2017-Sep-18 16:19N 33°43' W 118°17'0 0.0
2017-Sep-18 15:34N 33°43' W 118°17'0 0.0
2017-Sep-18 15:16N 33°43' W 118°17'0 0.0
2017-Sep-18 14:58N 33°43' W 118°17'0 0.2
2017-Sep-18 14:30N 33°43' W 118°16'3 5.2
2017-Sep-18 13:55N 33°41' W 118°14'410.2
2017-Sep-18 13:31N 33°37' W 118°15'510.4
2017-Sep-18 13:00N 33°31' W 118°16'510.2
2017-Sep-18 12:30N 33°26' W 118°16'5 9.3
2017-Sep-18 12:01N 33°22' W 118°16'4 7.9
2017-Sep-18 11:29N 33°18' W 118°17'3 6.7
2017-Sep-18 11:00N 33°15' W 118°18'2 4.3
2017-Sep-18 10:30N 33°12' W 118°18'2 4.3
2017-Sep-18 10:00N 33°10' W 118°18'2 4.3
2017-Sep-18 09:28N 33°08' W 118°19'2 4.3
2017-Sep-18 09:01N 33°06' W 118°19'2 4.4
2017-Sep-18 08:30N 33°04' W 118°19'2 4.4
2017-Sep-18 07:59N 33°02' W 118°19'2 4.4
2017-Sep-18 07:28N 32°59' W 118°20'2 4.4
2017-Sep-18 07:00N 32°57' W 118°20'2 4.4
2017-Sep-18 06:30N 32°55' W 118°20'2 4.4
2017-Sep-18 06:00N 32°53' W 118°20'3 5.1
2017-Sep-18 05:31N 32°50' W 118°20'5 9.4
2017-Sep-18 04:57N 32°47' W 118°25'610.2
2017-Sep-18 04:19N 32°47' W 118°33'710.1
2017-Sep-18 03:40N 32°44' W 118°40'210.3
2017-Sep-18 03:30N 32°43' W 118°42'510.3
2017-Sep-18 03:01N 32°42' W 118°48'910.2
2017-Sep-18 02:08N 32°40' W 118°58'310.2
2017-Sep-18 01:50N 32°39' W 119°01'410.1
2017-Sep-18 01:27N 32°37' W 119°06'2810.2
2017-Sep-17 22:40N 32°30' W 119°38'3910.5
2017-Sep-17 18:56N 32°21' W 120°23'19 1.1
2017-Sep-17 01:51N 32°20' W 120°46'3 0.6
2017-Sep-16 20:48N 32°19' W 120°43'2 5.3
2017-Sep-16 20:30N 32°18' W 120°41'56 7.6
2017-Sep-16 13:08N 32°29' W 119°36'4 9.0
2017-Sep-16 12:41N 32°30' W 119°31'8 9.0
2017-Sep-16 11:49N 32°32' W 119°22'3 9.2
2017-Sep-16 11:30N 32°33' W 119°19'4 9.1
2017-Sep-16 11:00N 32°34' W 119°14'5 8.9
2017-Sep-16 10:26N 32°36' W 119°08'6 9.0
2017-Sep-16 09:45N 32°37' W 119°01'2 8.8
2017-Sep-16 09:30N 32°38' W 118°59'9 9.0
2017-Sep-16 08:29N 32°40' W 118°48'26 9.3
2017-Sep-16 05:40N 32°50' W 118°20'510.0
2017-Sep-16 05:10N 32°55' W 118°19'210.1
2017-Sep-16 04:59N 32°57' W 118°18'610.3
2017-Sep-16 04:27N 33°02' W 118°17'1010.3
2017-Sep-16 03:26N 33°13' W 118°17'410.1
2017-Sep-16 03:00N 33°17' W 118°17'1910.1
2017-Sep-16 01:07N 33°36' W 118°15'110.2
2017-Sep-16 01:00N 33°37' W 118°15'510.1
2017-Sep-16 00:30N 33°42' W 118°15'2 2.8
2017-Sep-15 23:57N 33°43' W 118°16'0 0.0
2017-Sep-15 23:30N 33°43' W 118°16'0 0.0
2017-Sep-15 22:57N 33°43' W 118°16'0 0.0
2017-Sep-15 22:30N 33°43' W 118°16'0 0.0
2017-Sep-15 21:58N 33°43' W 118°16'0 0.0
2017-Sep-15 21:30N 33°43' W 118°16'0 0.0
2017-Sep-15 21:00N 33°43' W 118°16'0 0.0
2017-Sep-15 20:30N 33°43' W 118°16'0 0.0
2017-Sep-15 19:58N 33°43' W 118°16'0 0.0
2017-Sep-15 19:30N 33°43' W 118°16'0 0.0
2017-Sep-15 19:00N 33°43' W 118°16'0 0.0
2017-Sep-15 17:57N 33°43' W 118°16'0 0.0
2017-Sep-15 14:00N 33°43' W 118°16'0 0.0
2017-Sep-15 11:42N 33°43' W 118°16'0 0.0
2017-Sep-15 11:30N 33°43' W 118°16'0 0.0
2017-Sep-15 10:54N 33°43' W 118°16'0 0.0
2017-Sep-15 10:30N 33°43' W 118°16'0 0.0
2017-Sep-15 09:48N 33°43' W 118°16'0 0.0
2017-Sep-15 09:18N 33°43' W 118°16'0 0.0
2017-Sep-15 08:42N 33°43' W 118°16'0 0.0
2017-Sep-15 08:30N 33°43' W 118°16'0 0.0
2017-Sep-15 07:57N 33°43' W 118°16'0 0.0
2017-Sep-15 07:30N 33°43' W 118°16'0 0.0
2017-Sep-15 06:21N 33°43' W 118°16'0 0.0
2017-Sep-15 05:54N 33°43' W 118°16'0 0.0
2017-Sep-15 05:30N 33°43' W 118°16'0 0.0
2017-Sep-15 04:21N 33°43' W 118°16'0 0.0
2017-Sep-15 04:00N 33°43' W 118°16'0 0.0
2017-Sep-14 23:45N 33°43' W 118°16'0 0.0
2017-Sep-14 23:21N 33°43' W 118°16'0 0.0
2017-Sep-14 22:54N 33°43' W 118°16'0 0.0
2017-Sep-14 22:27N 33°43' W 118°16'0 0.0
2017-Sep-14 20:27N 33°43' W 118°16'0 0.0
2017-Sep-14 19:39N 33°43' W 118°16'0 0.0
2017-Sep-14 19:21N 33°43' W 118°16'0 0.0
2017-Sep-14 18:45N 33°43' W 118°16'0 0.0
2017-Sep-14 18:27N 33°43' W 118°16'0 0.0
2017-Sep-14 17:57N 33°43' W 118°16'0 0.0
2017-Sep-14 17:15N 33°43' W 118°16'0 0.0
2017-Sep-14 16:51N 33°43' W 118°16'0 0.0
2017-Sep-14 16:21N 33°43' W 118°16'0 0.0
2017-Sep-14 13:39N 33°43' W 118°16'0 0.0
2017-Sep-14 13:24N 33°43' W 118°16'0 0.0
2017-Sep-14 13:00N 33°43' W 118°16'0 0.0
2017-Sep-14 12:12N 33°43' W 118°16'0 0.0
2017-Sep-14 11:48N 33°43' W 118°16'0 0.0
2017-Sep-14 06:21N 33°43' W 118°16'0 0.0
2017-Sep-14 06:00N 33°43' W 118°16'0 0.0
2017-Sep-14 05:21N 33°43' W 118°16'0 0.0
2017-Sep-14 03:24N 33°43' W 118°16'0 0.0
2017-Sep-14 02:27N 33°43' W 118°16'0 0.0
2017-Sep-14 01:24N 33°43' W 118°16'0 0.0
2017-Sep-14 00:54N 33°43' W 118°16'0 0.0
2017-Sep-14 00:30N 33°43' W 118°16'0 0.0
2017-Sep-14 00:00N 33°43' W 118°16'0 0.0
2017-Sep-13 23:27N 33°43' W 118°16'0 0.0
2017-Sep-13 23:00N 33°43' W 118°16'0 0.0
2017-Sep-13 22:27N 33°43' W 118°16'0 0.0
2017-Sep-13 22:00N 33°43' W 118°16'0 0.0
2017-Sep-13 21:30N 33°43' W 118°16'0 0.0
2017-Sep-13 20:57N 33°43' W 118°16'0 0.0
2017-Sep-13 20:27N 33°43' W 118°16'0 0.0
2017-Sep-13 19:57N 33°43' W 118°16'0 0.0
2017-Sep-13 18:48N 33°43' W 118°16'0 0.0
2017-Sep-13 18:30N 33°43' W 118°16'0 0.0
2017-Sep-13 17:57N 33°43' W 118°16'0 0.0
2017-Sep-13 17:30N 33°43' W 118°16'0 0.0
2017-Sep-13 16:57N 33°43' W 118°16'0 0.0
2017-Sep-13 15:42N 33°43' W 118°16'0 0.0
2017-Sep-13 15:30N 33°43' W 118°16'0 0.0
2017-Sep-13 14:57N 33°43' W 118°16'0 0.0
2017-Sep-13 14:30N 33°43' W 118°16'0 0.0
2017-Sep-13 14:00N 33°43' W 118°16'0 0.0
2017-Sep-13 13:00N 33°43' W 118°16'0 0.0
2017-Sep-13 12:03N 33°43' W 118°16'0 0.0
2017-Sep-13 11:51N 33°43' W 118°16'0 0.0
2017-Sep-13 11:30N 33°43' W 118°16'0 0.0
2017-Sep-13 10:54N 33°43' W 118°16'0 0.0
2017-Sep-13 10:30N 33°43' W 118°16'0 0.0
2017-Sep-13 10:00N 33°43' W 118°16'0 0.0
2017-Sep-13 09:18N 33°43' W 118°16'0 0.0
2017-Sep-13 09:00N 33°43' W 118°16'0 0.0
2017-Sep-13 08:18N 33°43' W 118°16'0 0.0
2017-Sep-13 07:57N 33°43' W 118°16'0 0.0
2017-Sep-13 07:30N 33°43' W 118°16'0 0.0
2017-Sep-13 06:51N 33°43' W 118°16'0 0.0
2017-Sep-13 06:30N 33°43' W 118°16'0 0.0
2017-Sep-13 05:54N 33°43' W 118°16'0 0.0
2017-Sep-13 05:30N 33°43' W 118°16'0 0.0
2017-Sep-13 04:57N 33°43' W 118°16'0 0.0
2017-Sep-13 04:27N 33°43' W 118°16'0 0.0
2017-Sep-13 03:57N 33°43' W 118°16'0 0.0
2017-Sep-13 03:30N 33°43' W 118°16'0 0.0
2017-Sep-13 02:57N 33°43' W 118°16'0 0.0
2017-Sep-13 02:27N 33°43' W 118°16'0 0.0
2017-Sep-13 02:00N 33°43' W 118°16'0 0.0
2017-Sep-13 01:30N 33°43' W 118°16'0 0.0
2017-Sep-13 01:00N 33°43' W 118°16'0 0.0
2017-Sep-13 00:30N 33°43' W 118°16'0 0.0
2017-Sep-13 00:00N 33°43' W 118°16'0 0.0
2017-Sep-12 23:30N 33°43' W 118°16'0 0.0
2017-Sep-12 23:00N 33°43' W 118°16'0 0.0
2017-Sep-12 22:30N 33°43' W 118°16'0 0.0
2017-Sep-12 21:57N 33°43' W 118°16'0 0.0
2017-Sep-12 21:30N 33°43' W 118°16'0 0.0
2017-Sep-12 21:00N 33°43' W 118°16'0 0.0
2017-Sep-12 20:18N 33°43' W 118°16'0 0.0
2017-Sep-12 19:54N 33°43' W 118°16'0 0.0
2017-Sep-12 19:30N 33°43' W 118°16'0 0.0
2017-Sep-12 18:57N 33°43' W 118°16'0 0.0
2017-Sep-12 18:27N 33°43' W 118°16'0 0.0
2017-Sep-12 17:57N 33°43' W 118°16'0 0.0
2017-Sep-12 17:30N 33°43' W 118°16'0 0.0
2017-Sep-12 17:00N 33°43' W 118°16'0 0.0
2017-Sep-12 16:30N 33°43' W 118°16'0 0.0
2017-Sep-12 16:00N 33°43' W 118°16'0 0.0
2017-Sep-12 15:27N 33°43' W 118°16'0 0.0
2017-Sep-12 15:00N 33°43' W 118°16'0 0.0
2017-Sep-12 14:30N 33°43' W 118°16'0 0.0
2017-Sep-12 14:00N 33°43' W 118°16'0 0.0
2017-Sep-12 13:30N 33°43' W 118°16'0 0.0
2017-Sep-12 13:00N 33°43' W 118°16'0 0.0
2017-Sep-12 12:30N 33°43' W 118°16'0 0.0
2017-Sep-12 12:00N 33°43' W 118°16'0 0.0
2017-Sep-12 11:30N 33°43' W 118°16'0 0.0
2017-Sep-12 11:00N 33°43' W 118°16'0 0.0
2017-Sep-12 10:30N 33°43' W 118°16'0 0.0
2017-Sep-12 10:00N 33°43' W 118°16'0 0.0
2017-Sep-12 09:30N 33°43' W 118°16'0 0.0
2017-Sep-12 09:00N 33°43' W 118°16'0 0.0
2017-Sep-12 08:30N 33°43' W 118°16'0 0.0
2017-Sep-12 08:00N 33°43' W 118°16'0 0.0
2017-Sep-12 07:30N 33°43' W 118°16'0 0.0
2017-Sep-12 06:57N 33°43' W 118°16'0 0.0
2017-Sep-12 06:27N 33°43' W 118°16'0 0.0
2017-Sep-12 06:00N 33°43' W 118°16'0 0.0
2017-Sep-12 05:30N 33°43' W 118°16'0 0.0
2017-Sep-12 05:00N 33°43' W 118°16'0 0.0
2017-Sep-12 04:30N 33°43' W 118°16'0 0.0
2017-Sep-12 04:00N 33°43' W 118°16'0 0.0
2017-Sep-12 03:30N 33°43' W 118°16'0 0.0
2017-Sep-12 03:00N 33°43' W 118°16'0 0.0
2017-Sep-12 02:30N 33°43' W 118°16'0 0.0
2017-Sep-12 02:00N 33°43' W 118°16'0 0.0
2017-Sep-12 01:30N 33°43' W 118°16'0 0.0
2017-Sep-12 00:57N 33°43' W 118°16'0 0.0
2017-Sep-12 00:30N 33°43' W 118°16'0 0.0
2017-Sep-12 00:00N 33°43' W 118°16'0 0.0
2017-Sep-11 23:30N 33°43' W 118°16'0 0.0
2017-Sep-11 23:00N 33°43' W 118°16'0 0.0
2017-Sep-11 22:30N 33°43' W 118°16'0 0.0
2017-Sep-11 22:00N 33°43' W 118°16'0 0.0
2017-Sep-11 21:30N 33°43' W 118°16'0 0.0
2017-Sep-11 21:00N 33°43' W 118°16'0 0.0
2017-Sep-11 20:30N 33°43' W 118°16'0 0.0
2017-Sep-11 20:00N 33°43' W 118°16'0 0.0
2017-Sep-11 19:30N 33°43' W 118°16'0 0.0
2017-Sep-11 18:57N 33°43' W 118°16'0 0.0
2017-Sep-11 18:30N 33°43' W 118°16'0 0.0
2017-Sep-11 18:00N 33°43' W 118°16'0 0.0
2017-Sep-11 17:30N 33°43' W 118°16'0 0.0
2017-Sep-11 17:00N 33°43' W 118°16'0 0.0
2017-Sep-11 16:24N 33°43' W 118°16'0 0.0
2017-Sep-11 16:00N 33°43' W 118°16'0 0.0
2017-Sep-11 15:30N 33°43' W 118°16'0 0.0
2017-Sep-11 15:00N 33°43' W 118°16'0 0.0
2017-Sep-11 14:27N 33°43' W 118°16'0 0.0
2017-Sep-11 13:57N 33°43' W 118°16'0 0.0
2017-Sep-11 13:24N 33°43' W 118°16'0 0.0
2017-Sep-11 12:57N 33°43' W 118°16'0 0.0
2017-Sep-11 12:27N 33°43' W 118°16'0 0.0
2017-Sep-11 12:00N 33°43' W 118°16'0 0.0
2017-Sep-11 11:30N 33°43' W 118°16'0 0.0
2017-Sep-11 11:00N 33°43' W 118°16'0 0.0
2017-Sep-11 10:30N 33°43' W 118°16'0 0.0
2017-Sep-11 10:00N 33°43' W 118°16'0 0.0
2017-Sep-11 09:30N 33°43' W 118°16'0 0.0
2017-Sep-11 09:00N 33°43' W 118°16'0 0.0
2017-Sep-11 08:30N 33°43' W 118°16'0 0.0
2017-Sep-11 08:00N 33°43' W 118°16'0 0.0
2017-Sep-11 07:30N 33°43' W 118°16'0 0.0
2017-Sep-11 07:00N 33°43' W 118°16'0 0.0
2017-Sep-11 06:30N 33°43' W 118°16'0 0.0
2017-Sep-11 06:00N 33°43' W 118°16'0 0.0
2017-Sep-11 05:30N 33°43' W 118°16'0 0.0
2017-Sep-11 05:00N 33°43' W 118°16'0 0.0
2017-Sep-11 04:30N 33°43' W 118°16'0 0.0
2017-Sep-11 04:00N 33°43' W 118°16'0 0.0
2017-Sep-11 03:30N 33°43' W 118°16'0 0.0
2017-Sep-11 03:00N 33°43' W 118°16'0 0.0
2017-Sep-11 02:30N 33°43' W 118°16'0 0.0
2017-Sep-11 02:00N 33°43' W 118°16'0 0.0
2017-Sep-11 01:27N 33°43' W 118°16'0 0.0
2017-Sep-11 01:00N 33°43' W 118°16'0 0.0
2017-Sep-11 00:30N 33°43' W 118°16'0 0.0
2017-Sep-11 00:00N 33°43' W 118°16'0 0.0
2017-Sep-10 23:30N 33°43' W 118°16'0 0.0
2017-Sep-10 23:00N 33°43' W 118°16'0 0.0
2017-Sep-10 22:30N 33°43' W 118°16'0 0.0
2017-Sep-10 22:00N 33°43' W 118°16'0 0.0
2017-Sep-10 21:30N 33°43' W 118°16'0 0.0
2017-Sep-10 21:00N 33°43' W 118°16'0 0.0
2017-Sep-10 20:30N 33°43' W 118°16'0 0.0
2017-Sep-10 20:00N 33°43' W 118°16'0 0.0
2017-Sep-10 19:30N 33°43' W 118°16'0 0.0
2017-Sep-10 19:00N 33°43' W 118°16'0 0.0
2017-Sep-10 18:30N 33°43' W 118°16'0 0.0
2017-Sep-10 18:00N 33°43' W 118°16'0 0.0
2017-Sep-10 17:30N 33°43' W 118°16'0 0.0
2017-Sep-10 17:00N 33°43' W 118°16'0 0.0
2017-Sep-10 16:30N 33°43' W 118°16'0 0.0
2017-Sep-10 16:00N 33°43' W 118°16'0 0.0
2017-Sep-10 15:30N 33°43' W 118°16'0 0.0
2017-Sep-10 15:00N 33°43' W 118°16'0 0.0
2017-Sep-10 14:00N 33°43' W 118°16'0 0.0
2017-Sep-10 13:30N 33°43' W 118°16'0 0.0
2017-Sep-10 13:00N 33°43' W 118°16'0 0.0
2017-Sep-10 12:30N 33°43' W 118°16'0 0.0
2017-Sep-10 12:00N 33°43' W 118°16'0 0.0
2017-Sep-10 11:30N 33°43' W 118°16'0 0.0
2017-Sep-10 10:57N 33°43' W 118°16'0 0.0
2017-Sep-10 10:30N 33°43' W 118°16'0 0.0
2017-Sep-10 10:00N 33°43' W 118°16'0 0.0
2017-Sep-10 09:30N 33°43' W 118°16'0 0.0
2017-Sep-10 09:00N 33°43' W 118°16'0 0.0
2017-Sep-10 08:30N 33°43' W 118°16'0 0.0
2017-Sep-10 08:00N 33°43' W 118°16'0 0.0
2017-Sep-10 07:30N 33°43' W 118°16'0 0.0
2017-Sep-10 06:54N 33°43' W 118°16'0 0.0
2017-Sep-10 06:27N 33°43' W 118°16'0 0.0
2017-Sep-10 06:00N 33°43' W 118°16'0 0.0
2017-Sep-10 05:30N 33°43' W 118°16'0 0.0
2017-Sep-10 05:00N 33°43' W 118°16'0 0.0
2017-Sep-10 04:24N 33°43' W 118°16'0 0.0
2017-Sep-10 04:00N 33°43' W 118°16'0 0.0
2017-Sep-10 03:30N 33°43' W 118°16'0 0.0
2017-Sep-10 03:00N 33°43' W 118°16'0 0.0
2017-Sep-10 02:30N 33°43' W 118°16'0 0.0
2017-Sep-10 02:00N 33°43' W 118°16'0 0.0
2017-Sep-10 01:30N 33°43' W 118°16'0 0.0
2017-Sep-10 01:00N 33°43' W 118°16'0 0.0
2017-Sep-10 00:30N 33°43' W 118°16'0 0.0
2017-Sep-10 00:00N 33°43' W 118°16'0 0.0
2017-Sep-09 23:30N 33°43' W 118°16'0 0.0
2017-Sep-09 23:00N 33°43' W 118°16'0 0.0
2017-Sep-09 22:30N 33°43' W 118°16'0 0.0
2017-Sep-09 22:00N 33°43' W 118°16'0 0.0
2017-Sep-09 21:30N 33°43' W 118°16'0 0.0
2017-Sep-09 21:00N 33°43' W 118°16'0 0.0
2017-Sep-09 20:30N 33°43' W 118°16'0 0.0
2017-Sep-09 20:00N 33°43' W 118°16'0 0.0
2017-Sep-09 19:24N 33°43' W 118°16'0 0.0
2017-Sep-09 19:00N 33°43' W 118°16'0 0.0
2017-Sep-09 18:30N 33°43' W 118°16'0 0.0
2017-Sep-09 17:57N 33°43' W 118°16'0 0.0
2017-Sep-09 17:30N 33°43' W 118°16'0 0.0
2017-Sep-09 16:57N 33°43' W 118°16'0 0.0
2017-Sep-09 16:30N 33°43' W 118°16'0 0.0
2017-Sep-09 16:00N 33°43' W 118°16'0 0.0
2017-Sep-09 15:30N 33°43' W 118°16'0 0.0
2017-Sep-09 14:57N 33°43' W 118°16'0 0.0
2017-Sep-09 14:30N 33°43' W 118°16'0 0.0
2017-Sep-09 14:00N 33°43' W 118°16'0 0.0
2017-Sep-09 13:30N 33°43' W 118°16'0 0.0
2017-Sep-09 12:54N 33°43' W 118°16'0 0.0
2017-Sep-09 12:30N 33°43' W 118°16'0 0.0
2017-Sep-09 12:00N 33°43' W 118°16'0 0.0
2017-Sep-09 11:30N 33°43' W 118°16'0 0.0
2017-Sep-09 11:00N 33°43' W 118°16'0 0.0
2017-Sep-09 10:18N 33°43' W 118°16'0 0.0
2017-Sep-09 10:00N 33°43' W 118°16'0 0.0
2017-Sep-09 09:30N 33°43' W 118°16'0 0.0
2017-Sep-09 09:00N 33°43' W 118°16'0 0.0
2017-Sep-09 08:30N 33°43' W 118°16'0 0.0
2017-Sep-09 07:54N 33°43' W 118°16'0 0.0
2017-Sep-09 07:30N 33°43' W 118°16'0 0.0
2017-Sep-09 06:57N 33°43' W 118°16'  

Dump ship's entire track history